RYR85KK LEAM-EBCI
Flight info
| Callsign | RYR85KK |
|---|---|
| Flight time | N/A |
| Altitude | 36000 |
| Route | ESILA N865 VTB DCT RBO DCT OSTIX DCT GASMO DCT DGO N858 ABRIX DCT CNA DCT ADABI/N0426F340 DCT BOKNO UN858 VANAD UN874 BAMES UT191 PODEM UN873 BAZOS DCT BELDI DCT VEKIN Z173 ARVOL |
| Aircraft | B738/M-SDE2E3FGHIRWXY/LB1 |
Departure
| Time | 2026-04-17 13:04 |
|---|---|
| Airport | Almería Airport (LEAM) |
Arrival
| Time | N/A |
|---|---|
| Airport | Brussels South Charleroi Airport (EBCI) |
| Time | Latitude | Longitude | Altitude | Speed | Heading |
|---|---|---|---|---|---|
| 2026-04-17 12:49 | 36.84544 | -2.37841 | 70 ft | 0 kts | 101° |
| 2026-04-17 12:58 | 36.84538 | -2.37811 | 62 ft | 7 kts | 116° |
| 2026-04-17 12:59 | 36.84518 | -2.37736 | 68 ft | 13 kts | 73° |
| 2026-04-17 12:59 | 36.84554 | -2.37591 | 63 ft | 21 kts | 75° |
| 2026-04-17 12:59 | 36.84533 | -2.37465 | 67 ft | 12 kts | 78° |
| 2026-04-17 12:59 | 36.84509 | -2.37369 | 65 ft | 15 kts | 133° |
| 2026-04-17 13:00 | 36.84517 | -2.37226 | 62 ft | 20 kts | 73° |
| 2026-04-17 13:00 | 36.84560 | -2.37046 | 60 ft | 23 kts | 73° |
| 2026-04-17 13:00 | 36.84609 | -2.36843 | 64 ft | 24 kts | 73° |
| 2026-04-17 13:00 | 36.84659 | -2.36647 | 59 ft | 23 kts | 72° |
| 2026-04-17 13:01 | 36.84705 | -2.36459 | 62 ft | 22 kts | 74° |
| 2026-04-17 13:01 | 36.84750 | -2.36274 | 65 ft | 22 kts | 73° |
| 2026-04-17 13:01 | 36.84797 | -2.36081 | 61 ft | 25 kts | 73° |
| 2026-04-17 13:01 | 36.84852 | -2.35854 | 64 ft | 29 kts | 72° |
| 2026-04-17 13:02 | 36.84913 | -2.35611 | 57 ft | 29 kts | 72° |
| 2026-04-17 13:02 | 36.84951 | -2.35424 | 64 ft | 19 kts | 93° |
| 2026-04-17 13:02 | 36.84864 | -2.35327 | 59 ft | 18 kts | 178° |
| 2026-04-17 13:02 | 36.84780 | -2.35439 | 57 ft | 21 kts | 256° |
| 2026-04-17 13:03 | 36.84703 | -2.35754 | 57 ft | 65 kts | 253° |
| 2026-04-17 13:03 | 36.84513 | -2.36526 | 59 ft | 118 kts | 253° |
| 2026-04-17 13:03 | 36.84230 | -2.37682 | 67 ft | 158 kts | 252° |
| 2026-04-17 13:03 | 36.83908 | -2.39042 | 534 ft | 159 kts | 253° |
| 2026-04-17 13:04 | 36.83608 | -2.40355 | 1103 ft | 162 kts | 251° |
| 2026-04-17 13:04 | 36.83245 | -2.41804 | 1329 ft | 189 kts | 251° |
| 2026-04-17 13:04 | 36.82829 | -2.43485 | 1542 ft | 211 kts | 251° |
| 2026-04-17 13:04 | 36.82377 | -2.45295 | 1919 ft | 224 kts | 251° |
| 2026-04-17 13:05 | 36.81898 | -2.47198 | 2285 ft | 235 kts | 252° |
| 2026-04-17 13:05 | 36.81404 | -2.49168 | 2864 ft | 239 kts | 252° |
| 2026-04-17 13:05 | 36.80900 | -2.51184 | 3371 ft | 249 kts | 252° |
| 2026-04-17 13:05 | 36.80388 | -2.53260 | 4007 ft | 251 kts | 252° |
| 2026-04-17 13:06 | 36.79874 | -2.55344 | 4658 ft | 253 kts | 252° |
| 2026-04-17 13:06 | 36.79350 | -2.57465 | 5228 ft | 257 kts | 252° |
| 2026-04-17 13:06 | 36.78822 | -2.59599 | 5876 ft | 259 kts | 252° |
| 2026-04-17 13:06 | 36.78287 | -2.61756 | 6519 ft | 262 kts | 252° |
| 2026-04-17 13:07 | 36.77970 | -2.63244 | 6912 ft | 264 kts | 262° |
| 2026-04-17 13:07 | 36.78189 | -2.65491 | 7539 ft | 265 kts | 295° |
| 2026-04-17 13:07 | 36.79296 | -2.67285 | 8208 ft | 263 kts | 324° |
| 2026-04-17 13:07 | 36.80920 | -2.68300 | 8871 ft | 262 kts | 343° |
| 2026-04-17 13:08 | 36.82639 | -2.68965 | 9573 ft | 263 kts | 344° |
| 2026-04-17 13:08 | 36.84402 | -2.69607 | 10287 ft | 264 kts | 344° |
| 2026-04-17 13:08 | 36.86188 | -2.70256 | 10873 ft | 269 kts | 344° |
| 2026-04-17 13:08 | 36.87987 | -2.70917 | 11557 ft | 270 kts | 343° |
| 2026-04-17 13:09 | 36.89792 | -2.71589 | 12238 ft | 272 kts | 343° |
| 2026-04-17 13:09 | 36.91620 | -2.72274 | 12840 ft | 278 kts | 343° |
| 2026-04-17 13:09 | 36.93481 | -2.72977 | 13507 ft | 281 kts | 343° |
| 2026-04-17 13:09 | 36.95365 | -2.73691 | 14179 ft | 284 kts | 343° |
| 2026-04-17 13:10 | 36.97262 | -2.74410 | 14868 ft | 285 kts | 342° |
| 2026-04-17 13:10 | 36.99161 | -2.75134 | 15523 ft | 288 kts | 342° |
| 2026-04-17 13:10 | 37.01096 | -2.75872 | 16131 ft | 292 kts | 342° |
| 2026-04-17 13:10 | 37.03047 | -2.76617 | 16776 ft | 295 kts | 341° |
| 2026-04-17 13:11 | 37.04863 | -2.77769 | 17372 ft | 296 kts | 317° |
| 2026-04-17 13:11 | 37.06157 | -2.79820 | 17642 ft | 310 kts | 297° |
| 2026-04-17 13:11 | 37.07167 | -2.82300 | 17801 ft | 330 kts | 295° |
| 2026-04-17 13:11 | 37.08202 | -2.84952 | 17953 ft | 349 kts | 295° |
| 2026-04-17 13:12 | 37.09291 | -2.87757 | 18165 ft | 366 kts | 295° |
| 2026-04-17 13:12 | 37.11568 | -2.93570 | 19261 ft | 374 kts | 295° |
| 2026-04-17 13:12 | 37.12724 | -2.96499 | 19801 ft | 378 kts | 295° |
| 2026-04-17 13:13 | 37.13900 | -2.99472 | 20317 ft | 382 kts | 296° |
| 2026-04-17 13:13 | 37.15087 | -3.02465 | 20848 ft | 386 kts | 296° |
| 2026-04-17 13:13 | 37.16289 | -3.05496 | 21308 ft | 391 kts | 296° |
| 2026-04-17 13:13 | 37.17505 | -3.08563 | 21845 ft | 394 kts | 296° |
| 2026-04-17 13:14 | 37.18726 | -3.11647 | 22404 ft | 396 kts | 296° |
| 2026-04-17 13:14 | 37.19955 | -3.14754 | 22910 ft | 399 kts | 296° |
| 2026-04-17 13:14 | 37.21191 | -3.17883 | 23441 ft | 402 kts | 296° |
| 2026-04-17 13:14 | 37.22437 | -3.21039 | 23888 ft | 405 kts | 296° |
| 2026-04-17 13:15 | 37.23692 | -3.24221 | 24270 ft | 409 kts | 296° |
| 2026-04-17 13:15 | 37.24952 | -3.27419 | 24773 ft | 409 kts | 296° |
| 2026-04-17 13:15 | 37.26223 | -3.30622 | 25192 ft | 411 kts | 296° |
| 2026-04-17 13:15 | 37.27515 | -3.33844 | 25541 ft | 416 kts | 296° |
| 2026-04-17 13:16 | 37.28822 | -3.37095 | 25901 ft | 419 kts | 296° |
| 2026-04-17 13:16 | 37.30136 | -3.40367 | 26332 ft | 420 kts | 296° |
| 2026-04-17 13:16 | 37.31450 | -3.43645 | 26793 ft | 421 kts | 296° |
| 2026-04-17 13:16 | 37.32768 | -3.46944 | 27123 ft | 425 kts | 296° |
| 2026-04-17 13:17 | 37.34114 | -3.50317 | 27484 ft | 428 kts | 296° |
| 2026-04-17 13:17 | 37.35450 | -3.53667 | 27857 ft | 430 kts | 296° |
| 2026-04-17 13:17 | 37.36806 | -3.57025 | 28211 ft | 432 kts | 299° |
| 2026-04-17 13:17 | 37.38682 | -3.59979 | 28506 ft | 437 kts | 319° |
| 2026-04-17 13:18 | 37.41251 | -3.62020 | 28876 ft | 440 kts | 336° |
| 2026-04-17 13:18 | 37.44186 | -3.63112 | 29222 ft | 444 kts | 352° |
| 2026-04-17 13:18 | 37.47234 | -3.63250 | 29570 ft | 446 kts | 360° |
| 2026-04-17 13:18 | 37.50346 | -3.63173 | 29874 ft | 449 kts | 1° |
| 2026-04-17 13:19 | 37.53479 | -3.63066 | 30151 ft | 452 kts | 0° |
| 2026-04-17 13:19 | 37.56631 | -3.62984 | 30411 ft | 454 kts | 0° |
| 2026-04-17 13:19 | 37.59795 | -3.62937 | 30672 ft | 456 kts | 360° |
| 2026-04-17 13:19 | 37.62970 | -3.62910 | 30987 ft | 456 kts | 359° |
| 2026-04-17 13:20 | 37.66142 | -3.62889 | 31355 ft | 455 kts | 359° |
| 2026-04-17 13:20 | 37.69313 | -3.62867 | 31647 ft | 456 kts | 359° |
| 2026-04-17 13:20 | 37.72490 | -3.62843 | 31915 ft | 458 kts | 359° |
| 2026-04-17 13:20 | 37.75675 | -3.62818 | 32266 ft | 457 kts | 359° |
| 2026-04-17 13:21 | 37.78851 | -3.62792 | 32620 ft | 456 kts | 360° |
| 2026-04-17 13:21 | 37.82067 | -3.62766 | 32933 ft | 456 kts | 360° |
| 2026-04-17 13:21 | 37.85199 | -3.62741 | 33205 ft | 457 kts | 360° |
| 2026-04-17 13:21 | 37.88416 | -3.62716 | 33517 ft | 457 kts | 360° |
| 2026-04-17 13:22 | 37.91591 | -3.62690 | 33826 ft | 457 kts | 359° |
| 2026-04-17 13:22 | 37.94774 | -3.62665 | 34072 ft | 457 kts | 359° |
| 2026-04-17 13:22 | 37.97960 | -3.62639 | 34340 ft | 457 kts | 359° |
| 2026-04-17 13:22 | 38.01134 | -3.62614 | 34625 ft | 456 kts | 359° |
| 2026-04-17 13:23 | 38.04303 | -3.62588 | 34918 ft | 455 kts | 359° |
| 2026-04-17 13:23 | 38.07472 | -3.62563 | 35169 ft | 455 kts | 359° |
| 2026-04-17 13:23 | 38.10636 | -3.62538 | 35397 ft | 455 kts | 359° |
| 2026-04-17 13:23 | 38.13799 | -3.62512 | 35664 ft | 454 kts | 359° |
| 2026-04-17 13:24 | 38.16955 | -3.62424 | 35905 ft | 454 kts | 1° |
| 2026-04-17 13:24 | 38.20120 | -3.62179 | 35958 ft | 458 kts | 3° |
| 2026-04-17 13:24 | 38.26496 | -3.61501 | 35961 ft | 460 kts | 4° |
| 2026-04-17 13:25 | 38.32827 | -3.60818 | 35964 ft | 453 kts | 3° |
| 2026-04-17 13:25 | 38.39100 | -3.60185 | 35978 ft | 452 kts | 3° |
| 2026-04-17 13:26 | 38.45361 | -3.59574 | 35976 ft | 451 kts | 3° |
| 2026-04-17 13:26 | 38.51619 | -3.58965 | 35973 ft | 451 kts | 3° |
| 2026-04-17 13:27 | 38.57874 | -3.58354 | 35974 ft | 451 kts | 3° |
| 2026-04-17 13:27 | 38.64133 | -3.57740 | 35979 ft | 452 kts | 3° |
| 2026-04-17 13:28 | 38.70410 | -3.57123 | 35976 ft | 453 kts | 3° |
| 2026-04-17 13:28 | 38.76701 | -3.56504 | 35977 ft | 454 kts | 3° |
| 2026-04-17 13:29 | 38.83009 | -3.55882 | 35977 ft | 455 kts | 3° |
| 2026-04-17 13:29 | 38.89328 | -3.55257 | 35975 ft | 456 kts | 3° |
| 2026-04-17 13:30 | 38.95666 | -3.54630 | 35983 ft | 457 kts | 3° |
| 2026-04-17 13:30 | 39.02050 | -3.53998 | 35979 ft | 457 kts | 3° |
| 2026-04-17 13:31 | 39.08400 | -3.53372 | 35983 ft | 457 kts | 2° |
| 2026-04-17 13:31 | 39.14748 | -3.52745 | 35977 ft | 457 kts | 2° |
| 2026-04-17 13:32 | 39.21091 | -3.52118 | 35980 ft | 457 kts | 2° |
| 2026-04-17 13:32 | 39.27426 | -3.51489 | 35979 ft | 456 kts | 2° |
| 2026-04-17 13:33 | 39.33760 | -3.50860 | 35987 ft | 456 kts | 2° |
| 2026-04-17 13:33 | 39.40088 | -3.50230 | 35986 ft | 456 kts | 2° |
| 2026-04-17 13:34 | 39.46408 | -3.49600 | 35987 ft | 455 kts | 2° |
| 2026-04-17 13:34 | 39.52725 | -3.48968 | 35991 ft | 455 kts | 2° |
| 2026-04-17 13:35 | 39.59040 | -3.48336 | 35992 ft | 455 kts | 2° |
| 2026-04-17 13:35 | 39.65355 | -3.47696 | 35989 ft | 455 kts | 2° |
| 2026-04-17 13:36 | 39.71668 | -3.47054 | 35987 ft | 455 kts | 2° |
| 2026-04-17 13:36 | 39.77988 | -3.46407 | 35989 ft | 456 kts | 3° |
| 2026-04-17 13:37 | 39.84286 | -3.45324 | 35992 ft | 457 kts | 7° |
| 2026-04-17 13:37 | 39.90571 | -3.43991 | 35991 ft | 458 kts | 7° |
| 2026-04-17 13:38 | 39.96858 | -3.42672 | 35995 ft | 458 kts | 7° |
| 2026-04-17 13:38 | 40.03151 | -3.41394 | 35989 ft | 458 kts | 6° |
| 2026-04-17 13:39 | 40.09446 | -3.40131 | 35997 ft | 458 kts | 6° |
| 2026-04-17 13:39 | 40.15742 | -3.38866 | 35995 ft | 458 kts | 6° |
| 2026-04-17 13:40 | 40.22084 | -3.37590 | 36001 ft | 458 kts | 6° |
| 2026-04-17 13:40 | 40.28378 | -3.36321 | 35993 ft | 458 kts | 6° |
| 2026-04-17 13:41 | 40.34678 | -3.35047 | 35993 ft | 458 kts | 6° |
| 2026-04-17 13:41 | 40.39951 | -3.33979 | 35998 ft | 458 kts | 6° |
| 2026-04-17 13:42 | 40.46248 | -3.32701 | 36001 ft | 458 kts | 6° |
| 2026-04-17 13:42 | 40.52548 | -3.31420 | 35993 ft | 458 kts | 6° |
| 2026-04-17 13:43 | 40.58845 | -3.30137 | 35996 ft | 458 kts | 6° |
| 2026-04-17 13:43 | 40.65146 | -3.28852 | 35996 ft | 458 kts | 6° |
| 2026-04-17 13:44 | 40.71441 | -3.27564 | 36003 ft | 458 kts | 6° |
| 2026-04-17 13:44 | 40.77734 | -3.26275 | 35993 ft | 458 kts | 6° |
| 2026-04-17 13:45 | 40.84027 | -3.24983 | 36006 ft | 457 kts | 6° |
| 2026-04-17 13:45 | 40.90314 | -3.23636 | 36002 ft | 458 kts | 7° |